KJFK

John F Kennedy International Airport

New York, New York, USA
METAR KJFK 230051Z COR 06007KT 8SM SCT006 BKN100 OVC240 06/06 A3014 RMK AO2 SLP207 T00560056
Observed Flight Rules
Jan-23 @ 00:51 UTC (48 minutes ago) Visual Flight Rules
Wind Visibility Clouds
60° at 7 knots 8 miles
  • Scattered at 600' AGL
  • Broken at 10,000' AGL
  • Overcast at 24,000' AGL
Temperatures Readings
Current 6°C / 43°F
Dewpoint 6°C / 43°F
Humidity 100%
Altimeter 30.14" Hg
Pressure 1020.7 hPa
Elevation 9
METAR KJFK 230051Z COR 06007KT 8SM SCT006 BKN100 OVC240 06/06 A3014 RMK AO2 SLP207 T00560056
Observed Flight Rules
Jan-23 @ 00:51 UTC
(48 minutes ago)
VFR
Wind Visibility
60° at 7 knots 8 miles
Clouds
  • Scattered at 600' AGL
  • Broken at 10,000' AGL
  • Overcast at 24,000' AGL
Temperature Dewpoint
6°C / 43°F 6°C / 43°F
Humidity Altimeter Pressure
100% 30.14" Hg 1020.7 hPa